sensor_id;sensor_type;location;lat;lon;timestamp;temperature;humidity
23769;DHT22;12064;50.890;5.424;2023-06-04T00:00:43;22.90;76.10
23769;DHT22;12064;50.890;5.424;2023-06-04T00:09:34;22.90;76.20
23769;DHT22;12064;50.890;5.424;2023-06-04T00:18:25;22.90;76.20
23769;DHT22;12064;50.890;5.424;2023-06-04T00:27:16;22.90;76.40
23769;DHT22;12064;50.890;5.424;2023-06-04T00:36:07;22.80;76.30
23769;DHT22;12064;50.890;5.424;2023-06-04T00:44:58;22.80;76.40
23769;DHT22;12064;50.890;5.424;2023-06-04T00:53:49;22.80;76.30
23769;DHT22;12064;50.890;5.424;2023-06-04T01:02:41;22.80;76.40
23769;DHT22;12064;50.890;5.424;2023-06-04T01:11:38;22.70;76.40
23769;DHT22;12064;50.890;5.424;2023-06-04T01:20:44;22.70;76.60
23769;DHT22;12064;50.890;5.424;2023-06-04T01:29:36;22.70;76.50
23769;DHT22;12064;50.890;5.424;2023-06-04T01:38:27;22.70;76.40
23769;DHT22;12064;50.890;5.424;2023-06-04T01:47:18;22.60;76.50
23769;DHT22;12064;50.890;5.424;2023-06-04T01:56:08;22.70;76.60
23769;DHT22;12064;50.890;5.424;2023-06-04T02:04:59;22.60;76.60
23769;DHT22;12064;50.890;5.424;2023-06-04T02:13:50;22.60;76.60
23769;DHT22;12064;50.890;5.424;2023-06-04T02:22:40;22.60;76.70
23769;DHT22;12064;50.890;5.424;2023-06-04T02:31:31;22.60;76.80
23769;DHT22;12064;50.890;5.424;2023-06-04T02:40:22;22.50;76.90
23769;DHT22;12064;50.890;5.424;2023-06-04T02:49:12;22.50;77.00
23769;DHT22;12064;50.890;5.424;2023-06-04T02:58:04;22.40;76.90
23769;DHT22;12064;50.890;5.424;2023-06-04T03:06:54;22.40;77.20
23769;DHT22;12064;50.890;5.424;2023-06-04T03:15:48;22.40;77.30
23769;DHT22;12064;50.890;5.424;2023-06-04T03:24:40;22.40;77.50
23769;DHT22;12064;50.890;5.424;2023-06-04T03:33:31;22.30;77.50
23769;DHT22;12064;50.890;5.424;2023-06-04T03:42:22;22.30;77.60
23769;DHT22;12064;50.890;5.424;2023-06-04T03:51:12;22.20;77.90
23769;DHT22;12064;50.890;5.424;2023-06-04T04:00:04;22.20;77.90
23769;DHT22;12064;50.890;5.424;2023-06-04T04:08:56;22.20;78.10
23769;DHT22;12064;50.890;5.424;2023-06-04T04:17:46;22.20;78.40
23769;DHT22;12064;50.890;5.424;2023-06-04T04:26:37;22.10;78.50
23769;DHT22;12064;50.890;5.424;2023-06-04T04:35:28;22.10;78.40
23769;DHT22;12064;50.890;5.424;2023-06-04T04:44:19;22.10;78.60
23769;DHT22;12064;50.890;5.424;2023-06-04T04:53:10;22.10;78.50
23769;DHT22;12064;50.890;5.424;2023-06-04T05:02:01;22.10;78.50
23769;DHT22;12064;50.890;5.424;2023-06-04T05:10:52;22.10;78.50
23769;DHT22;12064;50.890;5.424;2023-06-04T05:19:43;22.10;78.40
23769;DHT22;12064;50.890;5.424;2023-06-04T05:28:34;22.10;78.30
23769;DHT22;12064;50.890;5.424;2023-06-04T05:37:28;22.00;78.20
23769;DHT22;12064;50.890;5.424;2023-06-04T05:46:19;22.10;78.30
23769;DHT22;12064;50.890;5.424;2023-06-04T05:55:10;22.10;78.10
23769;DHT22;12064;50.890;5.424;2023-06-04T06:04:00;22.20;77.90
23769;DHT22;12064;50.890;5.424;2023-06-04T06:12:51;22.20;77.80
23769;DHT22;12064;50.890;5.424;2023-06-04T06:21:41;22.30;77.50
23769;DHT22;12064;50.890;5.424;2023-06-04T06:30:32;22.40;77.30
23769;DHT22;12064;50.890;5.424;2023-06-04T06:39:23;22.50;76.90
23769;DHT22;12064;50.890;5.424;2023-06-04T06:48:14;22.50;76.40
23769;DHT22;12064;50.890;5.424;2023-06-04T06:57:04;22.60;76.10
23769;DHT22;12064;50.890;5.424;2023-06-04T07:06:00;22.70;75.80
23769;DHT22;12064;50.890;5.424;2023-06-04T07:14:50;22.80;75.60
23769;DHT22;12064;50.890;5.424;2023-06-04T07:23:41;22.90;75.40
23769;DHT22;12064;50.890;5.424;2023-06-04T07:32:32;23.00;75.10
23769;DHT22;12064;50.890;5.424;2023-06-04T07:41:22;23.00;75.00
23769;DHT22;12064;50.890;5.424;2023-06-04T07:50:13;23.10;74.70
23769;DHT22;12064;50.890;5.424;2023-06-04T07:59:04;23.20;74.40
23769;DHT22;12064;50.890;5.424;2023-06-04T08:07:55;23.30;74.20
23769;DHT22;12064;50.890;5.424;2023-06-04T08:16:45;23.40;74.00
23769;DHT22;12064;50.890;5.424;2023-06-04T08:25:36;23.50;73.80
23769;DHT22;12064;50.890;5.424;2023-06-04T08:34:27;23.50;73.70
23769;DHT22;12064;50.890;5.424;2023-06-04T08:43:18;23.60;73.40
23769;DHT22;12064;50.890;5.424;2023-06-04T08:52:10;23.70;73.40
23769;DHT22;12064;50.890;5.424;2023-06-04T09:01:01;23.80;73.30
23769;DHT22;12064;50.890;5.424;2023-06-04T09:09:52;23.80;73.00
23769;DHT22;12064;50.890;5.424;2023-06-04T09:18:44;23.90;72.80
23769;DHT22;12064;50.890;5.424;2023-06-04T09:27:39;24.10;72.50
23769;DHT22;12064;50.890;5.424;2023-06-04T09:36:30;24.30;71.70
23769;DHT22;12064;50.890;5.424;2023-06-04T09:45:32;24.10;72.20
23769;DHT22;12064;50.890;5.424;2023-06-04T09:54:23;24.10;72.40
23769;DHT22;12064;50.890;5.424;2023-06-04T10:03:25;24.10;72.70
23769;DHT22;12064;50.890;5.424;2023-06-04T10:12:23;24.10;72.80
23769;DHT22;12064;50.890;5.424;2023-06-04T10:21:17;24.10;72.60
23769;DHT22;12064;50.890;5.424;2023-06-04T10:30:08;24.10;72.50
23769;DHT22;12064;50.890;5.424;2023-06-04T10:39:00;24.10;72.70
23769;DHT22;12064;50.890;5.424;2023-06-04T10:48:02;24.10;72.60
23769;DHT22;12064;50.890;5.424;2023-06-04T10:56:53;24.10;72.70
23769;DHT22;12064;50.890;5.424;2023-06-04T11:05:47;24.10;72.50
23769;DHT22;12064;50.890;5.424;2023-06-04T11:14:38;24.10;72.60
23769;DHT22;12064;50.890;5.424;2023-06-04T11:23:29;24.10;72.60
23769;DHT22;12064;50.890;5.424;2023-06-04T11:32:23;24.10;72.70
23769;DHT22;12064;50.890;5.424;2023-06-04T11:41:14;24.20;72.60
23769;DHT22;12064;50.890;5.424;2023-06-04T11:50:06;24.10;73.60
23769;DHT22;12064;50.890;5.424;2023-06-04T11:58:57;24.20;72.70
23769;DHT22;12064;50.890;5.424;2023-06-04T12:07:51;24.10;72.70
23769;DHT22;12064;50.890;5.424;2023-06-04T12:16:42;24.10;72.90
23769;DHT22;12064;50.890;5.424;2023-06-04T12:25:34;24.10;72.90
23769;DHT22;12064;50.890;5.424;2023-06-04T12:34:25;24.10;73.00
23769;DHT22;12064;50.890;5.424;2023-06-04T12:43:16;24.10;72.80
23769;DHT22;12064;50.890;5.424;2023-06-04T12:52:06;24.10;73.10
23769;DHT22;12064;50.890;5.424;2023-06-04T13:00:58;24.10;73.10
23769;DHT22;12064;50.890;5.424;2023-06-04T13:09:49;24.10;73.00
23769;DHT22;12064;50.890;5.424;2023-06-04T13:18:39;24.20;72.80
23769;DHT22;12064;50.890;5.424;2023-06-04T13:27:30;24.20;72.90
23769;DHT22;12064;50.890;5.424;2023-06-04T13:36:21;24.20;72.70
23769;DHT22;12064;50.890;5.424;2023-06-04T13:45:12;24.30;72.30
23769;DHT22;12064;50.890;5.424;2023-06-04T13:54:02;24.30;72.10
23769;DHT22;12064;50.890;5.424;2023-06-04T14:02:53;24.30;72.40
23769;DHT22;12064;50.890;5.424;2023-06-04T14:11:45;24.30;72.20
23769;DHT22;12064;50.890;5.424;2023-06-04T14:20:40;24.30;72.60
23769;DHT22;12064;50.890;5.424;2023-06-04T14:29:31;24.30;72.70
23769;DHT22;12064;50.890;5.424;2023-06-04T14:38:22;24.40;72.70
23769;DHT22;12064;50.890;5.424;2023-06-04T14:47:12;24.30;72.70
23769;DHT22;12064;50.890;5.424;2023-06-04T14:56:03;24.30;73.00
23769;DHT22;12064;50.890;5.424;2023-06-04T15:04:54;24.30;72.70
23769;DHT22;12064;50.890;5.424;2023-06-04T15:13:44;24.40;72.90
23769;DHT22;12064;50.890;5.424;2023-06-04T15:22:35;24.40;68.60
23769;DHT22;12064;50.890;5.424;2023-06-04T15:31:26;24.30;72.00
23769;DHT22;12064;50.890;5.424;2023-06-04T15:40:17;24.30;72.30
23769;DHT22;12064;50.890;5.424;2023-06-04T15:49:09;24.30;72.90
23769;DHT22;12064;50.890;5.424;2023-06-04T15:57:59;24.30;72.90
23769;DHT22;12064;50.890;5.424;2023-06-04T16:06:50;24.40;72.90
23769;DHT22;12064;50.890;5.424;2023-06-04T16:15:41;24.40;73.50
23769;DHT22;12064;50.890;5.424;2023-06-04T16:24:32;24.30;73.40
23769;DHT22;12064;50.890;5.424;2023-06-04T16:33:23;24.40;73.40
23769;DHT22;12064;50.890;5.424;2023-06-04T16:42:13;24.40;73.10
23769;DHT22;12064;50.890;5.424;2023-06-04T16:51:04;24.40;68.70
23769;DHT22;12064;50.890;5.424;2023-06-04T16:59:55;24.40;71.30
23769;DHT22;12064;50.890;5.424;2023-06-04T17:08:46;24.40;72.00
23769;DHT22;12064;50.890;5.424;2023-06-04T17:17:36;24.30;72.60
23769;DHT22;12064;50.890;5.424;2023-06-04T17:26:27;24.40;73.40
23769;DHT22;12064;50.890;5.424;2023-06-04T17:35:19;24.40;73.10
23769;DHT22;12064;50.890;5.424;2023-06-04T17:44:10;24.30;73.80
23769;DHT22;12064;50.890;5.424;2023-06-04T17:53:01;24.30;73.30
23769;DHT22;12064;50.890;5.424;2023-06-04T18:01:51;24.30;73.00
23769;DHT22;12064;50.890;5.424;2023-06-04T18:10:42;24.30;73.20
23769;DHT22;12064;50.890;5.424;2023-06-04T18:19:33;24.30;73.10
23769;DHT22;12064;50.890;5.424;2023-06-04T18:28:24;24.30;73.40
23769;DHT22;12064;50.890;5.424;2023-06-04T18:37:15;24.30;73.50
23769;DHT22;12064;50.890;5.424;2023-06-04T18:46:05;24.30;73.30
23769;DHT22;12064;50.890;5.424;2023-06-04T18:54:56;24.30;73.10
23769;DHT22;12064;50.890;5.424;2023-06-04T19:03:47;24.30;73.20
23769;DHT22;12064;50.890;5.424;2023-06-04T19:12:39;24.30;73.30
23769;DHT22;12064;50.890;5.424;2023-06-04T19:21:31;24.30;67.20
23769;DHT22;12064;50.890;5.424;2023-06-04T19:30:25;23.90;58.10
23769;DHT22;12064;50.890;5.424;2023-06-04T19:39:15;23.90;61.00
23769;DHT22;12064;50.890;5.424;2023-06-04T19:48:06;23.80;60.90
23769;DHT22;12064;50.890;5.424;2023-06-04T19:56:57;23.80;61.10
23769;DHT22;12064;50.890;5.424;2023-06-04T20:05:50;23.70;60.60
23769;DHT22;12064;50.890;5.424;2023-06-04T20:14:41;23.60;59.80
23769;DHT22;12064;50.890;5.424;2023-06-04T20:23:35;23.70;59.00
23769;DHT22;12064;50.890;5.424;2023-06-04T20:32:26;23.80;60.90
23769;DHT22;12064;50.890;5.424;2023-06-04T20:41:18;23.90;62.20
23769;DHT22;12064;50.890;5.424;2023-06-04T20:50:10;23.90;64.50
23769;DHT22;12064;50.890;5.424;2023-06-04T20:59:00;23.90;63.90
23769;DHT22;12064;50.890;5.424;2023-06-04T21:07:51;23.90;64.80
23769;DHT22;12064;50.890;5.424;2023-06-04T21:16:42;23.80;65.00
23769;DHT22;12064;50.890;5.424;2023-06-04T21:25:33;23.80;65.60
23769;DHT22;12064;50.890;5.424;2023-06-04T21:34:23;23.80;65.60
23769;DHT22;12064;50.890;5.424;2023-06-04T21:43:14;23.80;65.80
23769;DHT22;12064;50.890;5.424;2023-06-04T21:52:05;23.80;66.10
23769;DHT22;12064;50.890;5.424;2023-06-04T22:00:56;23.70;66.70
23769;DHT22;12064;50.890;5.424;2023-06-04T22:09:47;23.70;67.10
23769;DHT22;12064;50.890;5.424;2023-06-04T22:18:37;23.70;67.40
23769;DHT22;12064;50.890;5.424;2023-06-04T22:27:28;23.70;67.70
23769;DHT22;12064;50.890;5.424;2023-06-04T22:36:19;23.60;68.00
23769;DHT22;12064;50.890;5.424;2023-06-04T22:45:09;23.60;68.40
23769;DHT22;12064;50.890;5.424;2023-06-04T22:54:00;23.60;68.60
23769;DHT22;12064;50.890;5.424;2023-06-04T23:02:51;23.60;69.00
23769;DHT22;12064;50.890;5.424;2023-06-04T23:11:42;23.60;69.30
23769;DHT22;12064;50.890;5.424;2023-06-04T23:20:33;23.50;69.50
23769;DHT22;12064;50.890;5.424;2023-06-04T23:29:24;23.50;69.60
23769;DHT22;12064;50.890;5.424;2023-06-04T23:38:14;23.50;69.80
23769;DHT22;12064;50.890;5.424;2023-06-04T23:47:05;23.50;70.00
23769;DHT22;12064;50.890;5.424;2023-06-04T23:55:56;23.50;70.00
